EW3600 Weather Reports


Display with metric or nautical units.
time (UTC)temp
F
wind
direction
speed
MPH
gust
MPH
rain 1hr
in
rain 24hr
in
rain mn
in
humidity
%
barometer
mb
20190216044527 22 154 2.0 3.0 0.00 0.12 0.09 91 1010.2
20190216043032 21 139 1.0 4.0 0.00 0.12 0.09 91 1010.1
20190216041534 22 148 1.0 4.0 0.00 0.12 0.09 92 1010.0
20190216040026 22 146 4.0 5.0 0.00 0.12 0.09 92 1009.8
20190216034514 22 160 1.0 1.0 0.00 0.19 0.09 92 1009.9
20190216033050 22 149 1.0 2.0 0.00 0.19 0.09 92 1009.6
20190216031513 23 108 3.0 8.0 0.00 0.19 0.09 93 1009.3
20190216030019 22 110 0.0 2.0 0.00 0.26 0.09 92 1009.4
20190216024536 22 213 3.0 7.0 0.00 0.26 0.09 93 1009.6
20190216023012 23 257 4.0 6.0 0.00 0.26 0.09 92 1009.3
20190216021503 25 274 7.0 9.0 0.00 0.26 0.09 84 1009.2
20190216020004 25 139 6.0 13.0 0.00 0.26 0.09 87 1009.0
20190216014637 24 142 3.0 5.0 0.00 0.26 0.09 93 1009.6
20190216013158 24 178 4.0 8.0 0.00 0.26 0.09 94 1009.6
20190216011738 23 129 7.0 10.0 0.00 0.26 0.09 94 1009.2
20190216010213 24 117 3.0 9.0 0.00 0.26 0.09 94 1009.0
20190216004652 24 304 0.0 5.0 0.00 0.26 0.09 94 1009.1
20190216003149 24 333 7.0 12.0 0.00 0.26 0.09 94 1008.8
20190216001623 24 356 9.0 13.0 0.00 0.26 0.09 94 1008.6
20190216000140 24 333 17.0 29.0 0.00 0.26 0.09 94 1008.2
20190215234734 24 319 17.0 27.0 0.00 0.26 0.09 94 1007.9
20190215233131 25 325 11.0 20.0 0.00 0.26 0.09 94 1007.8
20190215231621 25 317 15.0 18.0 0.01 0.26 0.09 93 1007.9
20190215230134 26 324 12.0 18.0 0.01 0.26 0.09 93 1007.4
20190215224627 26 290 15.0 25.0 0.01 0.26 0.09 91 1006.8
20190215223141 31 302 8.0 18.0 0.01 0.26 0.09 81 1006.6
20190215221613 34 154 10.0 14.0 0.01 0.25 0.08 86 1005.4
20190215220131 34 145 13.0 17.0 0.01 0.25 0.08 87 1005.6
20190215214641 34 141 12.0 18.0 0.01 0.25 0.08 88 1005.9
20190215213144 33 139 13.0 17.0 0.01 0.25 0.08 89 1006.2
20190215211613 33 137 14.0 20.0 0.00 0.24 0.07 90 1006.4
20190215210129 32 141 14.0 17.0 0.00 0.24 0.07 91 1006.6
20190215204608 32 143 12.0 15.0 0.00 0.24 0.07 92 1007.2
20190215203100 32 149 9.0 13.0 0.02 0.24 0.07 90 1007.6
20190215201611 32 160 12.0 19.0 0.02 0.24 0.07 91 1007.7
20190215200041 32 200 10.0 17.0 0.03 0.24 0.07 90 1007.9
20190215194614 33 267 10.0 14.0 0.03 0.24 0.07 84 1008.4
20190215193121 35 214 10.0 20.0 0.01 0.22 0.05 76 1008.2
20190215191536 36 212 12.0 21.0 0.02 0.22 0.05 74 1008.4
20190215190034 36 160 11.0 15.0 0.01 0.21 0.04 74 1008.4
20190215184524 35 152 12.0 16.0 0.01 0.21 0.04 75 1008.3
20190215183121 34 167 11.0 15.0 0.01 0.21 0.04 75 1008.5
20190215181518 33 152 13.0 15.0 0.00 0.20 0.03 77 1008.5
20190215180109 33 161 12.0 14.0 0.00 0.20 0.03 77 1008.7
20190215174515 33 176 10.0 12.0 0.00 0.21 0.03 80 1008.7
20190215173008 31 169 8.0 10.0 0.00 0.21 0.03 81 1008.8
20190215171523 31 171 5.0 8.0 0.00 0.21 0.03 79 1008.8
20190215170021 31 160 4.0 8.0 0.00 0.23 0.03 78 1008.6
20190215164749 30 150 5.0 8.0 0.00 0.23 0.03 78 1008.8
20190215163309 29 145 3.0 5.0 0.00 0.23 0.03 78 1009.1
20190215161729 29 139 4.0 5.0 0.00 0.23 0.03 79 1009.2
20190215160227 29 121 2.0 4.0 0.00 0.23 0.03 81 1009.0
20190215154701 29 144 5.0 7.0 0.00 0.24 0.03 78 1008.9
20190215153151 29 149 7.0 9.0 0.00 0.24 0.03 79 1008.9
20190215151642 31 183 5.0 9.0 0.00 0.24 0.03 76 1008.9
20190215150154 29 203 6.0 8.0 0.00 0.24 0.03 77 1008.9
20190215144658 31 228 4.0 8.0 0.00 0.24 0.03 73 1008.7
20190215143138 32 184 7.0 11.0 0.00 0.24 0.03 72 1008.5
20190215141616 32 212 9.0 13.0 0.00 0.24 0.03 75 1008.3
20190215140121 31 176 9.0 14.0 0.00 0.24 0.03 84 1008.2
20190215134607 29 170 8.0 12.0 0.00 0.24 0.03 89 1008.2
20190215133107 30 207 6.0 10.0 0.00 0.24 0.03 89 1007.9
20190215131610 30 201 9.0 11.0 0.00 0.24 0.03 89 1007.6
20190215130139 31 193 9.0 11.0 0.00 0.24 0.03 91 1007.5
20190215124551 32 169 8.0 13.0 0.00 0.24 0.03 93 1007.5
20190215123038 32 166 12.0 14.0 0.00 0.24 0.03 94 1007.5
20190215121534 32 155 9.0 12.0 0.00 0.24 0.03 97 1007.3
20190215120039 31 150 5.0 8.0 0.00 0.24 0.03 97 1007.2
20190215114554 31 160 7.0 11.0 0.00 0.24 0.03 97 1007.1
20190215113034 31 164 6.0 8.0 0.00 0.24 0.03 97 1006.9
20190215111517 31 160 3.0 6.0 0.01 0.24 0.03 97 1006.5
20190215110022 31 167 6.0 9.0 0.01 0.24 0.03 96 1006.5
20190215104510 32 148 6.0 7.0 0.01 0.24 0.03 96 1006.0
20190215103011 32 143 6.0 9.0 0.01 0.24 0.03 96 1005.6
20190215101508 32 204 5.0 8.0 0.00 0.23 0.02 96 1005.5
20190215094643 32 151 6.0 9.0 0.02 0.23 0.02 97 1005.1
20190215093241 32 143 6.0 9.0 0.02 0.23 0.02 97 1004.7
20190215091703 32 171 7.0 11.0 0.02 0.23 0.02 97 1004.5
20190215090211 32 162 8.0 10.0 0.02 0.23 0.02 97 1004.4
20190215084642 32 145 8.0 10.0 0.00 0.21 0.00 97 1003.6
20190215083140 32 148 0.0 0.0 0.00 0.21 0.00 97 1003.2
20190215081633 31 156 0.0 0.0 0.00 0.21 0.00 97 1002.9
20190215080158 31 117 0.0 0.0 0.00 0.21 0.00 97 1002.7
20190215074633 31 113 0.0 0.0 0.00 0.21 0.00 96 1002.3
20190215073041 31 217 0.0 0.0 0.00 0.21 0.00 97 1001.9
20190215071627 31 150 0.0 0.0 0.00 0.21 0.00 96 1000.5
20190215070054 31 155 0.0 0.0 0.00 0.21 0.00 96 1000.7
20190215064535 31 120 0.0 0.0 0.00 0.21 0.21 96 1000.9
20190215063039 31 122 0.0 0.0 0.00 0.21 0.21 96 1000.9
20190215061544 31 269 0.0 2.0 0.00 0.21 0.21 96 1000.8
20190215060140 31 295 2.0 4.0 0.00 0.21 0.21 96 1000.6
20190215054553 32 174 4.0 7.0 0.00 0.21 0.21 96 999.8
20190215053027 32 148 8.0 9.0 0.00 0.21 0.21 96 999.2
20190215051555 32 134 8.0 12.0 0.01 0.21 0.21 96 998.8
20190215050052 32 130 8.0 10.0 0.02 0.21 0.21 95 998.8